sensor_id;sensor_type;location;lat;lon;timestamp;P1;durP1;ratioP1;P2;durP2;ratioP2
19219;SDS011;9744;49.364;7.484;2023-08-01T00:00:26;22.08;;;9.10;;
19219;SDS011;9744;49.364;7.484;2023-08-01T00:02:53;17.58;;;8.57;;
19219;SDS011;9744;49.364;7.484;2023-08-01T00:05:21;19.00;;;8.65;;
19219;SDS011;9744;49.364;7.484;2023-08-01T00:07:48;24.30;;;8.80;;
19219;SDS011;9744;49.364;7.484;2023-08-01T00:10:17;14.88;;;7.43;;
19219;SDS011;9744;49.364;7.484;2023-08-01T00:12:44;18.08;;;8.55;;
19219;SDS011;9744;49.364;7.484;2023-08-01T00:15:12;21.70;;;8.70;;
19219;SDS011;9744;49.364;7.484;2023-08-01T00:17:39;22.48;;;8.18;;
19219;SDS011;9744;49.364;7.484;2023-08-01T00:20:07;17.85;;;7.18;;
19219;SDS011;9744;49.364;7.484;2023-08-01T00:22:35;13.25;;;7.28;;
19219;SDS011;9744;49.364;7.484;2023-08-01T00:25:02;16.83;;;6.93;;
19219;SDS011;9744;49.364;7.484;2023-08-01T00:27:31;15.35;;;6.68;;
19219;SDS011;9744;49.364;7.484;2023-08-01T00:29:58;14.77;;;6.78;;
19219;SDS011;9744;49.364;7.484;2023-08-01T00:32:26;17.65;;;7.53;;
19219;SDS011;9744;49.364;7.484;2023-08-01T00:34:53;12.30;;;6.57;;
19219;SDS011;9744;49.364;7.484;2023-08-01T00:37:20;14.25;;;7.93;;
19219;SDS011;9744;49.364;7.484;2023-08-01T00:39:47;17.00;;;7.18;;
19219;SDS011;9744;49.364;7.484;2023-08-01T00:42:15;19.70;;;7.70;;
19219;SDS011;9744;49.364;7.484;2023-08-01T00:44:44;16.98;;;7.95;;
19219;SDS011;9744;49.364;7.484;2023-08-01T00:47:13;16.00;;;7.43;;
19219;SDS011;9744;49.364;7.484;2023-08-01T00:49:40;16.60;;;7.53;;
19219;SDS011;9744;49.364;7.484;2023-08-01T00:52:08;16.70;;;7.47;;
19219;SDS011;9744;49.364;7.484;2023-08-01T00:54:36;17.40;;;7.47;;
19219;SDS011;9744;49.364;7.484;2023-08-01T00:57:04;20.23;;;7.90;;
19219;SDS011;9744;49.364;7.484;2023-08-01T00:59:32;16.48;;;7.82;;
19219;SDS011;9744;49.364;7.484;2023-08-01T01:02:01;18.75;;;7.93;;
19219;SDS011;9744;49.364;7.484;2023-08-01T01:04:29;14.75;;;7.95;;
19219;SDS011;9744;49.364;7.484;2023-08-01T01:06:57;21.38;;;8.13;;
19219;SDS011;9744;49.364;7.484;2023-08-01T01:09:29;17.52;;;8.07;;
19219;SDS011;9744;49.364;7.484;2023-08-01T01:11:57;19.73;;;8.00;;
19219;SDS011;9744;49.364;7.484;2023-08-01T01:14:25;18.50;;;7.63;;
19219;SDS011;9744;49.364;7.484;2023-08-01T01:16:53;14.30;;;7.30;;
19219;SDS011;9744;49.364;7.484;2023-08-01T01:19:22;18.70;;;7.90;;
19219;SDS011;9744;49.364;7.484;2023-08-01T01:21:51;16.90;;;7.57;;
19219;SDS011;9744;49.364;7.484;2023-08-01T01:24:19;16.35;;;8.15;;
19219;SDS011;9744;49.364;7.484;2023-08-01T01:26:48;14.15;;;7.45;;
19219;SDS011;9744;49.364;7.484;2023-08-01T01:29:15;14.90;;;7.28;;
19219;SDS011;9744;49.364;7.484;2023-08-01T01:31:43;15.73;;;7.47;;
19219;SDS011;9744;49.364;7.484;2023-08-01T01:34:12;16.63;;;7.63;;
19219;SDS011;9744;49.364;7.484;2023-08-01T01:36:40;14.68;;;7.60;;
19219;SDS011;9744;49.364;7.484;2023-08-01T01:39:09;17.63;;;7.88;;
19219;SDS011;9744;49.364;7.484;2023-08-01T01:41:36;18.08;;;7.40;;
19219;SDS011;9744;49.364;7.484;2023-08-01T01:44:03;18.52;;;7.90;;
19219;SDS011;9744;49.364;7.484;2023-08-01T01:46:30;26.52;;;8.18;;
19219;SDS011;9744;49.364;7.484;2023-08-01T01:48:58;15.68;;;7.03;;
19219;SDS011;9744;49.364;7.484;2023-08-01T01:51:25;17.10;;;7.88;;
19219;SDS011;9744;49.364;7.484;2023-08-01T01:53:53;17.60;;;7.57;;
19219;SDS011;9744;49.364;7.484;2023-08-01T01:56:22;16.58;;;7.70;;
19219;SDS011;9744;49.364;7.484;2023-08-01T01:58:50;20.80;;;7.93;;
19219;SDS011;9744;49.364;7.484;2023-08-01T02:01:17;19.15;;;8.05;;
19219;SDS011;9744;49.364;7.484;2023-08-01T02:03:44;18.50;;;7.00;;
19219;SDS011;9744;49.364;7.484;2023-08-01T02:06:13;21.20;;;8.60;;
19219;SDS011;9744;49.364;7.484;2023-08-01T02:08:40;15.68;;;8.00;;
19219;SDS011;9744;49.364;7.484;2023-08-01T02:11:08;21.38;;;8.60;;
19219;SDS011;9744;49.364;7.484;2023-08-01T02:13:36;22.42;;;9.07;;
19219;SDS011;9744;49.364;7.484;2023-08-01T02:16:03;21.73;;;8.98;;
19219;SDS011;9744;49.364;7.484;2023-08-01T02:18:31;22.17;;;8.77;;
19219;SDS011;9744;49.364;7.484;2023-08-01T02:20:58;19.95;;;8.77;;
19219;SDS011;9744;49.364;7.484;2023-08-01T02:23:26;20.63;;;8.35;;
19219;SDS011;9744;49.364;7.484;2023-08-01T02:25:53;18.42;;;8.05;;
19219;SDS011;9744;49.364;7.484;2023-08-01T02:28:20;20.83;;;7.93;;
19219;SDS011;9744;49.364;7.484;2023-08-01T02:30:49;19.42;;;7.97;;
19219;SDS011;9744;49.364;7.484;2023-08-01T02:33:16;19.98;;;7.53;;
19219;SDS011;9744;49.364;7.484;2023-08-01T02:35:44;17.23;;;8.05;;
19219;SDS011;9744;49.364;7.484;2023-08-01T02:38:13;18.25;;;7.90;;
19219;SDS011;9744;49.364;7.484;2023-08-01T02:40:40;20.33;;;8.13;;
19219;SDS011;9744;49.364;7.484;2023-08-01T02:43:08;24.50;;;8.55;;
19219;SDS011;9744;49.364;7.484;2023-08-01T02:45:35;20.83;;;8.02;;
19219;SDS011;9744;49.364;7.484;2023-08-01T02:48:04;22.98;;;8.45;;
19219;SDS011;9744;49.364;7.484;2023-08-01T02:50:31;26.98;;;9.60;;
19219;SDS011;9744;49.364;7.484;2023-08-01T02:52:57;20.80;;;8.25;;
19219;SDS011;9744;49.364;7.484;2023-08-01T02:55:24;18.70;;;8.25;;
19219;SDS011;9744;49.364;7.484;2023-08-01T02:57:52;17.65;;;8.48;;
19219;SDS011;9744;49.364;7.484;2023-08-01T03:00:19;21.80;;;9.02;;
19219;SDS011;9744;49.364;7.484;2023-08-01T03:02:47;17.08;;;7.45;;
19219;SDS011;9744;49.364;7.484;2023-08-01T03:05:15;16.98;;;6.80;;
19219;SDS011;9744;49.364;7.484;2023-08-01T03:07:43;12.13;;;6.78;;
19219;SDS011;9744;49.364;7.484;2023-08-01T03:10:10;14.20;;;7.70;;
19219;SDS011;9744;49.364;7.484;2023-08-01T03:12:37;18.70;;;7.07;;
19219;SDS011;9744;49.364;7.484;2023-08-01T03:15:05;15.45;;;7.03;;
19219;SDS011;9744;49.364;7.484;2023-08-01T03:17:34;19.08;;;7.40;;
19219;SDS011;9744;49.364;7.484;2023-08-01T03:20:01;18.15;;;7.78;;
19219;SDS011;9744;49.364;7.484;2023-08-01T03:22:30;16.75;;;7.05;;
19219;SDS011;9744;49.364;7.484;2023-08-01T03:24:57;16.40;;;6.95;;
19219;SDS011;9744;49.364;7.484;2023-08-01T03:27:25;12.25;;;6.38;;
19219;SDS011;9744;49.364;7.484;2023-08-01T03:29:52;12.40;;;6.10;;
19219;SDS011;9744;49.364;7.484;2023-08-01T03:32:20;16.83;;;6.25;;
19219;SDS011;9744;49.364;7.484;2023-08-01T03:34:47;14.13;;;5.57;;
19219;SDS011;9744;49.364;7.484;2023-08-01T03:37:14;20.27;;;6.70;;
19219;SDS011;9744;49.364;7.484;2023-08-01T03:39:43;11.55;;;6.10;;
19219;SDS011;9744;49.364;7.484;2023-08-01T03:42:10;12.88;;;6.25;;
19219;SDS011;9744;49.364;7.484;2023-08-01T03:44:38;15.10;;;6.28;;
19219;SDS011;9744;49.364;7.484;2023-08-01T03:47:05;12.10;;;6.20;;
19219;SDS011;9744;49.364;7.484;2023-08-01T03:49:33;13.02;;;6.15;;
19219;SDS011;9744;49.364;7.484;2023-08-01T03:52:00;10.13;;;6.22;;
19219;SDS011;9744;49.364;7.484;2023-08-01T03:54:28;9.48;;;6.03;;
19219;SDS011;9744;49.364;7.484;2023-08-01T03:56:56;13.27;;;6.35;;
19219;SDS011;9744;49.364;7.484;2023-08-01T03:59:23;11.98;;;7.05;;
19219;SDS011;9744;49.364;7.484;2023-08-01T04:01:51;21.00;;;7.25;;
19219;SDS011;9744;49.364;7.484;2023-08-01T04:04:19;13.38;;;7.32;;
19219;SDS011;9744;49.364;7.484;2023-08-01T04:06:46;15.02;;;7.82;;
19219;SDS011;9744;49.364;7.484;2023-08-01T04:09:14;14.63;;;8.73;;
19219;SDS011;9744;49.364;7.484;2023-08-01T04:11:41;17.92;;;8.43;;
19219;SDS011;9744;49.364;7.484;2023-08-01T04:14:09;19.25;;;8.23;;
19219;SDS011;9744;49.364;7.484;2023-08-01T04:16:37;16.38;;;8.40;;
19219;SDS011;9744;49.364;7.484;2023-08-01T04:19:04;15.18;;;8.52;;
19219;SDS011;9744;49.364;7.484;2023-08-01T04:21:33;17.05;;;8.05;;
19219;SDS011;9744;49.364;7.484;2023-08-01T04:24:00;17.45;;;9.57;;
19219;SDS011;9744;49.364;7.484;2023-08-01T04:26:27;19.30;;;9.07;;
19219;SDS011;9744;49.364;7.484;2023-08-01T04:28:54;16.00;;;8.30;;
19219;SDS011;9744;49.364;7.484;2023-08-01T04:31:23;17.17;;;9.07;;
19219;SDS011;9744;49.364;7.484;2023-08-01T04:33:50;17.30;;;8.82;;
19219;SDS011;9744;49.364;7.484;2023-08-01T04:36:18;14.90;;;8.95;;
19219;SDS011;9744;49.364;7.484;2023-08-01T04:38:45;16.02;;;9.02;;
19219;SDS011;9744;49.364;7.484;2023-08-01T04:41:12;15.55;;;8.85;;
19219;SDS011;9744;49.364;7.484;2023-08-01T04:43:39;14.63;;;8.57;;
19219;SDS011;9744;49.364;7.484;2023-08-01T04:46:06;17.45;;;8.93;;
19219;SDS011;9744;49.364;7.484;2023-08-01T04:48:35;18.65;;;9.02;;
19219;SDS011;9744;49.364;7.484;2023-08-01T04:51:02;18.15;;;9.45;;
19219;SDS011;9744;49.364;7.484;2023-08-01T04:53:29;16.58;;;8.10;;
19219;SDS011;9744;49.364;7.484;2023-08-01T04:55:57;15.45;;;8.70;;
19219;SDS011;9744;49.364;7.484;2023-08-01T04:58:24;11.95;;;7.53;;
19219;SDS011;9744;49.364;7.484;2023-08-01T05:00:51;12.10;;;6.95;;
19219;SDS011;9744;49.364;7.484;2023-08-01T05:03:18;17.42;;;8.00;;
19219;SDS011;9744;49.364;7.484;2023-08-01T05:05:47;15.57;;;7.45;;
19219;SDS011;9744;49.364;7.484;2023-08-01T05:08:14;11.65;;;6.80;;
19219;SDS011;9744;49.364;7.484;2023-08-01T05:10:41;9.13;;;6.35;;
19219;SDS011;9744;49.364;7.484;2023-08-01T05:13:08;10.30;;;6.22;;
19219;SDS011;9744;49.364;7.484;2023-08-01T05:15:35;11.85;;;6.13;;
19219;SDS011;9744;49.364;7.484;2023-08-01T05:18:03;14.25;;;5.75;;
19219;SDS011;9744;49.364;7.484;2023-08-01T05:20:30;7.75;;;5.47;;
19219;SDS011;9744;49.364;7.484;2023-08-01T05:23:00;10.90;;;6.22;;
19219;SDS011;9744;49.364;7.484;2023-08-01T05:25:27;8.82;;;5.63;;
19219;SDS011;9744;49.364;7.484;2023-08-01T05:27:55;10.10;;;6.32;;
19219;SDS011;9744;49.364;7.484;2023-08-01T05:30:22;9.82;;;5.90;;
19219;SDS011;9744;49.364;7.484;2023-08-01T05:32:50;9.88;;;5.45;;
19219;SDS011;9744;49.364;7.484;2023-08-01T05:35:19;9.50;;;5.00;;
19219;SDS011;9744;49.364;7.484;2023-08-01T05:37:46;10.35;;;5.15;;
19219;SDS011;9744;49.364;7.484;2023-08-01T05:40:15;9.65;;;4.75;;
19219;SDS011;9744;49.364;7.484;2023-08-01T05:42:42;7.28;;;4.10;;
19219;SDS011;9744;49.364;7.484;2023-08-01T05:45:10;9.90;;;4.28;;
19219;SDS011;9744;49.364;7.484;2023-08-01T05:47:37;7.30;;;3.78;;
19219;SDS011;9744;49.364;7.484;2023-08-01T05:50:05;5.53;;;2.97;;
19219;SDS011;9744;49.364;7.484;2023-08-01T05:52:33;4.85;;;2.78;;
19219;SDS011;9744;49.364;7.484;2023-08-01T05:55:00;3.63;;;2.00;;
19219;SDS011;9744;49.364;7.484;2023-08-01T05:57:30;4.20;;;2.70;;
19219;SDS011;9744;49.364;7.484;2023-08-01T05:59:57;4.82;;;2.08;;
19219;SDS011;9744;49.364;7.484;2023-08-01T06:02:24;2.70;;;1.73;;
19219;SDS011;9744;49.364;7.484;2023-08-01T06:04:52;3.95;;;2.60;;
19219;SDS011;9744;49.364;7.484;2023-08-01T06:07:20;4.70;;;1.98;;
19219;SDS011;9744;49.364;7.484;2023-08-01T06:09:48;3.13;;;1.88;;
19219;SDS011;9744;49.364;7.484;2023-08-01T06:12:17;1.50;;;1.40;;
19219;SDS011;9744;49.364;7.484;2023-08-01T06:14:46;1.17;;;1.02;;
19219;SDS011;9744;49.364;7.484;2023-08-01T06:17:14;2.60;;;1.17;;
19219;SDS011;9744;49.364;7.484;2023-08-01T06:19:41;2.90;;;1.20;;
19219;SDS011;9744;49.364;7.484;2023-08-01T06:22:08;1.85;;;1.00;;
19219;SDS011;9744;49.364;7.484;2023-08-01T06:24:36;2.05;;;1.30;;
19219;SDS011;9744;49.364;7.484;2023-08-01T06:27:03;2.25;;;1.63;;
19219;SDS011;9744;49.364;7.484;2023-08-01T06:29:31;3.97;;;1.23;;
19219;SDS011;9744;49.364;7.484;2023-08-01T06:32:01;3.45;;;1.25;;
19219;SDS011;9744;49.364;7.484;2023-08-01T06:34:29;1.17;;;0.90;;
19219;SDS011;9744;49.364;7.484;2023-08-01T06:36:56;1.40;;;0.80;;
19219;SDS011;9744;49.364;7.484;2023-08-01T06:39:24;0.75;;;0.45;;
19219;SDS011;9744;49.364;7.484;2023-08-01T06:41:51;0.68;;;0.50;;
19219;SDS011;9744;49.364;7.484;2023-08-01T06:44:18;4.80;;;0.73;;
19219;SDS011;9744;49.364;7.484;2023-08-01T06:46:45;2.70;;;0.55;;
19219;SDS011;9744;49.364;7.484;2023-08-01T06:49:14;2.83;;;0.60;;
19219;SDS011;9744;49.364;7.484;2023-08-01T06:51:41;1.65;;;0.40;;
19219;SDS011;9744;49.364;7.484;2023-08-01T06:54:09;0.32;;;0.30;;
19219;SDS011;9744;49.364;7.484;2023-08-01T06:56:36;0.25;;;0.22;;
19219;SDS011;9744;49.364;7.484;2023-08-01T06:59:03;0.32;;;0.30;;
19219;SDS011;9744;49.364;7.484;2023-08-01T07:01:30;0.80;;;0.30;;
19219;SDS011;9744;49.364;7.484;2023-08-01T07:04:00;0.65;;;0.30;;
19219;SDS011;9744;49.364;7.484;2023-08-01T07:06:29;0.32;;;0.30;;
19219;SDS011;9744;49.364;7.484;2023-08-01T07:08:56;0.55;;;0.55;;
19219;SDS011;9744;49.364;7.484;2023-08-01T07:11:24;0.63;;;0.43;;
19219;SDS011;9744;49.364;7.484;2023-08-01T07:13:51;1.08;;;0.85;;
19219;SDS011;9744;49.364;7.484;2023-08-01T07:16:18;1.00;;;0.80;;
19219;SDS011;9744;49.364;7.484;2023-08-01T07:18:48;0.85;;;0.70;;
19219;SDS011;9744;49.364;7.484;2023-08-01T07:21:16;1.25;;;1.10;;
19219;SDS011;9744;49.364;7.484;2023-08-01T07:23:45;1.77;;;1.10;;
19219;SDS011;9744;49.364;7.484;2023-08-01T07:26:13;1.17;;;1.08;;
19219;SDS011;9744;49.364;7.484;2023-08-01T07:28:42;1.33;;;1.02;;
19219;SDS011;9744;49.364;7.484;2023-08-01T07:31:09;1.77;;;1.60;;
19219;SDS011;9744;49.364;7.484;2023-08-01T07:33:41;2.05;;;1.92;;
19219;SDS011;9744;49.364;7.484;2023-08-01T07:36:08;2.63;;;2.13;;
19219;SDS011;9744;49.364;7.484;2023-08-01T07:38:36;2.15;;;1.98;;
19219;SDS011;9744;49.364;7.484;2023-08-01T07:41:05;2.08;;;1.75;;
19219;SDS011;9744;49.364;7.484;2023-08-01T07:43:33;2.22;;;1.80;;
19219;SDS011;9744;49.364;7.484;2023-08-01T07:46:06;2.45;;;1.60;;
19219;SDS011;9744;49.364;7.484;2023-08-01T07:48:35;1.42;;;1.33;;
19219;SDS011;9744;49.364;7.484;2023-08-01T07:51:02;1.55;;;1.15;;
19219;SDS011;9744;49.364;7.484;2023-08-01T07:53:31;1.52;;;1.08;;
19219;SDS011;9744;49.364;7.484;2023-08-01T07:55:58;2.20;;;1.27;;
19219;SDS011;9744;49.364;7.484;2023-08-01T07:58:29;3.17;;;0.70;;
19219;SDS011;9744;49.364;7.484;2023-08-01T08:00:56;1.83;;;0.55;;
19219;SDS011;9744;49.364;7.484;2023-08-01T08:03:28;1.40;;;0.43;;
19219;SDS011;9744;49.364;7.484;2023-08-01T08:05:56;0.82;;;0.40;;
19219;SDS011;9744;49.364;7.484;2023-08-01T08:08:23;1.95;;;0.60;;
19219;SDS011;9744;49.364;7.484;2023-08-01T08:10:50;1.75;;;0.70;;
19219;SDS011;9744;49.364;7.484;2023-08-01T08:13:18;1.65;;;0.90;;
19219;SDS011;9744;49.364;7.484;2023-08-01T08:15:47;2.38;;;0.98;;
19219;SDS011;9744;49.364;7.484;2023-08-01T08:18:14;1.25;;;0.77;;
19219;SDS011;9744;49.364;7.484;2023-08-01T08:20:42;4.85;;;0.88;;
19219;SDS011;9744;49.364;7.484;2023-08-01T08:23:10;1.40;;;0.68;;
19219;SDS011;9744;49.364;7.484;2023-08-01T08:25:39;1.48;;;0.90;;
19219;SDS011;9744;49.364;7.484;2023-08-01T08:28:07;2.50;;;1.10;;
19219;SDS011;9744;49.364;7.484;2023-08-01T08:30:34;1.80;;;0.85;;
19219;SDS011;9744;49.364;7.484;2023-08-01T08:33:03;2.00;;;0.90;;
19219;SDS011;9744;49.364;7.484;2023-08-01T08:35:32;3.80;;;1.02;;
19219;SDS011;9744;49.364;7.484;2023-08-01T08:38:01;1.58;;;0.93;;
19219;SDS011;9744;49.364;7.484;2023-08-01T08:40:29;2.72;;;0.70;;
19219;SDS011;9744;49.364;7.484;2023-08-01T08:42:58;1.30;;;0.63;;
19219;SDS011;9744;49.364;7.484;2023-08-01T08:45:28;1.60;;;0.93;;
19219;SDS011;9744;49.364;7.484;2023-08-01T08:48:00;2.40;;;1.08;;
19219;SDS011;9744;49.364;7.484;2023-08-01T08:50:30;3.03;;;1.02;;
19219;SDS011;9744;49.364;7.484;2023-08-01T08:52:59;1.90;;;1.10;;
19219;SDS011;9744;49.364;7.484;2023-08-01T08:55:28;5.15;;;1.05;;
19219;SDS011;9744;49.364;7.484;2023-08-01T08:57:56;2.13;;;0.90;;
19219;SDS011;9744;49.364;7.484;2023-08-01T09:00:25;1.80;;;0.80;;
19219;SDS011;9744;49.364;7.484;2023-08-01T09:02:54;3.55;;;1.10;;
19219;SDS011;9744;49.364;7.484;2023-08-01T09:05:21;1.85;;;1.10;;
19219;SDS011;9744;49.364;7.484;2023-08-01T09:07:56;1.52;;;1.08;;
19219;SDS011;9744;49.364;7.484;2023-08-01T09:10:25;2.83;;;1.00;;
19219;SDS011;9744;49.364;7.484;2023-08-01T09:12:53;3.08;;;1.10;;
19219;SDS011;9744;49.364;7.484;2023-08-01T09:15:20;5.82;;;1.20;;
19219;SDS011;9744;49.364;7.484;2023-08-01T09:17:48;2.08;;;1.05;;
19219;SDS011;9744;49.364;7.484;2023-08-01T09:20:17;1.88;;;1.00;;
19219;SDS011;9744;49.364;7.484;2023-08-01T09:22:45;4.43;;;1.20;;
19219;SDS011;9744;49.364;7.484;2023-08-01T09:25:14;2.15;;;1.02;;
19219;SDS011;9744;49.364;7.484;2023-08-01T09:27:42;4.72;;;0.95;;
19219;SDS011;9744;49.364;7.484;2023-08-01T09:30:10;1.55;;;1.13;;
19219;SDS011;9744;49.364;7.484;2023-08-01T09:32:50;2.60;;;0.90;;
19219;SDS011;9744;49.364;7.484;2023-08-01T09:35:18;2.92;;;1.20;;
19219;SDS011;9744;49.364;7.484;2023-08-01T09:37:46;2.97;;;1.27;;
19219;SDS011;9744;49.364;7.484;2023-08-01T09:40:15;6.72;;;1.38;;
19219;SDS011;9744;49.364;7.484;2023-08-01T09:42:44;4.10;;;1.48;;
19219;SDS011;9744;49.364;7.484;2023-08-01T09:45:12;3.30;;;1.70;;
19219;SDS011;9744;49.364;7.484;2023-08-01T09:47:40;2.17;;;0.98;;
19219;SDS011;9744;49.364;7.484;2023-08-01T09:50:09;3.70;;;1.13;;
19219;SDS011;9744;49.364;7.484;2023-08-01T09:52:38;1.83;;;1.20;;
19219;SDS011;9744;49.364;7.484;2023-08-01T09:55:06;3.42;;;1.55;;
19219;SDS011;9744;49.364;7.484;2023-08-01T09:57:36;4.05;;;1.40;;
19219;SDS011;9744;49.364;7.484;2023-08-01T10:00:07;4.13;;;1.20;;
19219;SDS011;9744;49.364;7.484;2023-08-01T10:02:38;3.20;;;1.20;;
19219;SDS011;9744;49.364;7.484;2023-08-01T10:05:09;5.03;;;1.27;;
19219;SDS011;9744;49.364;7.484;2023-08-01T10:07:38;4.88;;;1.27;;
19219;SDS011;9744;49.364;7.484;2023-08-01T10:10:07;4.13;;;1.20;;
19219;SDS011;9744;49.364;7.484;2023-08-01T10:12:37;3.25;;;0.88;;
19219;SDS011;9744;49.364;7.484;2023-08-01T10:15:06;2.47;;;1.17;;
19219;SDS011;9744;49.364;7.484;2023-08-01T10:17:34;4.82;;;1.27;;
19219;SDS011;9744;49.364;7.484;2023-08-01T10:20:03;2.65;;;1.17;;
19219;SDS011;9744;49.364;7.484;2023-08-01T10:22:33;2.80;;;1.30;;
19219;SDS011;9744;49.364;7.484;2023-08-01T10:25:02;1.40;;;1.02;;
19219;SDS011;9744;49.364;7.484;2023-08-01T10:27:31;2.63;;;1.38;;
19219;SDS011;9744;49.364;7.484;2023-08-01T10:30:02;1.38;;;1.10;;
19219;SDS011;9744;49.364;7.484;2023-08-01T10:32:31;2.80;;;1.27;;
19219;SDS011;9744;49.364;7.484;2023-08-01T10:34:59;2.75;;;1.25;;
19219;SDS011;9744;49.364;7.484;2023-08-01T10:37:27;5.50;;;1.23;;
19219;SDS011;9744;49.364;7.484;2023-08-01T10:40:06;4.63;;;1.38;;
19219;SDS011;9744;49.364;7.484;2023-08-01T10:42:38;2.85;;;1.30;;
19219;SDS011;9744;49.364;7.484;2023-08-01T10:45:08;3.15;;;1.40;;
19219;SDS011;9744;49.364;7.484;2023-08-01T10:47:47;3.70;;;1.45;;
19219;SDS011;9744;49.364;7.484;2023-08-01T10:50:15;3.22;;;1.48;;
19219;SDS011;9744;49.364;7.484;2023-08-01T10:52:44;5.18;;;1.30;;
19219;SDS011;9744;49.364;7.484;2023-08-01T10:55:12;2.75;;;1.35;;
19219;SDS011;9744;49.364;7.484;2023-08-01T10:57:47;2.50;;;1.10;;
19219;SDS011;9744;49.364;7.484;2023-08-01T11:00:16;4.97;;;1.45;;
19219;SDS011;9744;49.364;7.484;2023-08-01T11:02:48;2.75;;;1.30;;
19219;SDS011;9744;49.364;7.484;2023-08-01T11:05:17;3.45;;;1.50;;
19219;SDS011;9744;49.364;7.484;2023-08-01T11:07:52;1.65;;;1.17;;
19219;SDS011;9744;49.364;7.484;2023-08-01T11:10:21;2.85;;;1.42;;
19219;SDS011;9744;49.364;7.484;2023-08-01T11:12:50;6.93;;;1.52;;
19219;SDS011;9744;49.364;7.484;2023-08-01T11:15:19;5.20;;;1.70;;
19219;SDS011;9744;49.364;7.484;2023-08-01T11:17:47;7.03;;;1.65;;
19219;SDS011;9744;49.364;7.484;2023-08-01T11:20:16;4.10;;;1.88;;
19219;SDS011;9744;49.364;7.484;2023-08-01T11:22:49;3.08;;;1.27;;
19219;SDS011;9744;49.364;7.484;2023-08-01T11:25:18;3.33;;;1.48;;
19219;SDS011;9744;49.364;7.484;2023-08-01T11:27:46;3.90;;;1.58;;
19219;SDS011;9744;49.364;7.484;2023-08-01T11:30:14;2.97;;;1.63;;
19219;SDS011;9744;49.364;7.484;2023-08-01T11:32:42;5.35;;;1.30;;
19219;SDS011;9744;49.364;7.484;2023-08-01T11:35:16;3.88;;;1.63;;
19219;SDS011;9744;49.364;7.484;2023-08-01T11:37:44;3.65;;;1.50;;
19219;SDS011;9744;49.364;7.484;2023-08-01T11:40:11;5.05;;;1.40;;
19219;SDS011;9744;49.364;7.484;2023-08-01T11:42:39;5.25;;;1.65;;
19219;SDS011;9744;49.364;7.484;2023-08-01T11:45:10;2.30;;;1.33;;
19219;SDS011;9744;49.364;7.484;2023-08-01T11:47:45;5.03;;;1.25;;
19219;SDS011;9744;49.364;7.484;2023-08-01T11:50:13;4.35;;;1.45;;
19219;SDS011;9744;49.364;7.484;2023-08-01T11:52:45;5.07;;;1.27;;
19219;SDS011;9744;49.364;7.484;2023-08-01T11:55:18;2.13;;;1.10;;
19219;SDS011;9744;49.364;7.484;2023-08-01T11:57:51;1.98;;;1.40;;
19219;SDS011;9744;49.364;7.484;2023-08-01T12:00:23;8.00;;;1.60;;
19219;SDS011;9744;49.364;7.484;2023-08-01T12:03:02;4.18;;;1.40;;
19219;SDS011;9744;49.364;7.484;2023-08-01T12:05:30;2.70;;;1.42;;
19219;SDS011;9744;49.364;7.484;2023-08-01T12:08:07;6.03;;;1.65;;
19219;SDS011;9744;49.364;7.484;2023-08-01T12:10:39;5.55;;;1.50;;
19219;SDS011;9744;49.364;7.484;2023-08-01T12:13:18;2.03;;;1.33;;
19219;SDS011;9744;49.364;7.484;2023-08-01T12:15:47;3.25;;;1.50;;
19219;SDS011;9744;49.364;7.484;2023-08-01T12:18:20;1.83;;;1.20;;
19219;SDS011;9744;49.364;7.484;2023-08-01T12:20:48;5.03;;;1.30;;
19219;SDS011;9744;49.364;7.484;2023-08-01T12:23:16;5.38;;;1.20;;
19219;SDS011;9744;49.364;7.484;2023-08-01T12:25:43;2.85;;;1.45;;
19219;SDS011;9744;49.364;7.484;2023-08-01T12:28:11;2.00;;;1.20;;
19219;SDS011;9744;49.364;7.484;2023-08-01T12:30:39;2.85;;;1.30;;
19219;SDS011;9744;49.364;7.484;2023-08-01T12:33:07;3.83;;;1.38;;
19219;SDS011;9744;49.364;7.484;2023-08-01T12:35:38;4.38;;;1.30;;
19219;SDS011;9744;49.364;7.484;2023-08-01T12:38:06;5.65;;;1.30;;
19219;SDS011;9744;49.364;7.484;2023-08-01T12:40:33;4.65;;;1.70;;
19219;SDS011;9744;49.364;7.484;2023-08-01T12:43:01;5.90;;;1.52;;
19219;SDS011;9744;49.364;7.484;2023-08-01T12:45:28;1.60;;;1.10;;
19219;SDS011;9744;49.364;7.484;2023-08-01T12:47:55;4.25;;;1.65;;
19219;SDS011;9744;49.364;7.484;2023-08-01T12:50:22;5.60;;;1.58;;
19219;SDS011;9744;49.364;7.484;2023-08-01T12:52:51;4.10;;;1.30;;
19219;SDS011;9744;49.364;7.484;2023-08-01T12:55:18;4.00;;;1.27;;
19219;SDS011;9744;49.364;7.484;2023-08-01T12:57:46;3.85;;;1.52;;
19219;SDS011;9744;49.364;7.484;2023-08-01T13:00:13;4.35;;;1.17;;
19219;SDS011;9744;49.364;7.484;2023-08-01T13:02:41;2.33;;;1.38;;
19219;SDS011;9744;49.364;7.484;2023-08-01T13:05:08;5.47;;;1.60;;
19219;SDS011;9744;49.364;7.484;2023-08-01T13:07:36;2.33;;;1.10;;
19219;SDS011;9744;49.364;7.484;2023-08-01T13:10:05;3.75;;;1.13;;
19219;SDS011;9744;49.364;7.484;2023-08-01T13:12:32;4.10;;;1.20;;
19219;SDS011;9744;49.364;7.484;2023-08-01T13:15:00;5.22;;;1.20;;
19219;SDS011;9744;49.364;7.484;2023-08-01T13:17:27;3.85;;;1.27;;
19219;SDS011;9744;49.364;7.484;2023-08-01T13:19:54;3.30;;;1.50;;
19219;SDS011;9744;49.364;7.484;2023-08-01T13:22:21;2.17;;;1.10;;
19219;SDS011;9744;49.364;7.484;2023-08-01T13:24:49;5.88;;;1.20;;
19219;SDS011;9744;49.364;7.484;2023-08-01T13:27:17;3.38;;;1.02;;
19219;SDS011;9744;49.364;7.484;2023-08-01T13:29:45;3.97;;;1.42;;
19219;SDS011;9744;49.364;7.484;2023-08-01T13:32:12;2.83;;;1.10;;
19219;SDS011;9744;49.364;7.484;2023-08-01T13:34:39;3.08;;;1.08;;
19219;SDS011;9744;49.364;7.484;2023-08-01T13:37:06;4.97;;;1.30;;
19219;SDS011;9744;49.364;7.484;2023-08-01T13:39:34;1.95;;;1.27;;
19219;SDS011;9744;49.364;7.484;2023-08-01T13:42:01;3.15;;;1.08;;
19219;SDS011;9744;49.364;7.484;2023-08-01T13:44:30;4.13;;;1.42;;
19219;SDS011;9744;49.364;7.484;2023-08-01T13:46:58;2.55;;;1.20;;
19219;SDS011;9744;49.364;7.484;2023-08-01T13:49:25;3.55;;;1.42;;
19219;SDS011;9744;49.364;7.484;2023-08-01T13:51:52;3.50;;;1.27;;
19219;SDS011;9744;49.364;7.484;2023-08-01T13:54:20;2.20;;;1.00;;
19219;SDS011;9744;49.364;7.484;2023-08-01T13:56:47;3.40;;;1.08;;
19219;SDS011;9744;49.364;7.484;2023-08-01T13:59:14;4.03;;;1.25;;
19219;SDS011;9744;49.364;7.484;2023-08-01T14:01:43;5.20;;;1.10;;
19219;SDS011;9744;49.364;7.484;2023-08-01T14:04:10;2.38;;;1.10;;
19219;SDS011;9744;49.364;7.484;2023-08-01T14:06:39;6.65;;;1.17;;
19219;SDS011;9744;49.364;7.484;2023-08-01T14:09:07;5.93;;;1.15;;
19219;SDS011;9744;49.364;7.484;2023-08-01T14:11:35;2.83;;;1.15;;
19219;SDS011;9744;49.364;7.484;2023-08-01T14:14:02;2.28;;;1.08;;
19219;SDS011;9744;49.364;7.484;2023-08-01T14:16:29;7.85;;;1.10;;
19219;SDS011;9744;49.364;7.484;2023-08-01T14:18:58;3.85;;;1.20;;
19219;SDS011;9744;49.364;7.484;2023-08-01T14:21:25;3.47;;;1.27;;
19219;SDS011;9744;49.364;7.484;2023-08-01T14:23:53;4.15;;;1.42;;
19219;SDS011;9744;49.364;7.484;2023-08-01T14:26:20;2.10;;;1.25;;
19219;SDS011;9744;49.364;7.484;2023-08-01T14:28:47;5.05;;;1.33;;
19219;SDS011;9744;49.364;7.484;2023-08-01T14:31:15;5.70;;;1.67;;
19219;SDS011;9744;49.364;7.484;2023-08-01T14:33:42;7.05;;;1.40;;
19219;SDS011;9744;49.364;7.484;2023-08-01T14:36:11;3.55;;;1.15;;
19219;SDS011;9744;49.364;7.484;2023-08-01T14:38:39;1.95;;;1.00;;
19219;SDS011;9744;49.364;7.484;2023-08-01T14:41:06;3.35;;;1.05;;
19219;SDS011;9744;49.364;7.484;2023-08-01T14:43:33;2.50;;;0.95;;
19219;SDS011;9744;49.364;7.484;2023-08-01T14:46:00;4.30;;;1.40;;
19219;SDS011;9744;49.364;7.484;2023-08-01T14:48:28;3.30;;;1.40;;
19219;SDS011;9744;49.364;7.484;2023-08-01T14:50:55;1.92;;;1.00;;
19219;SDS011;9744;49.364;7.484;2023-08-01T14:53:23;4.38;;;1.25;;
19219;SDS011;9744;49.364;7.484;2023-08-01T14:55:56;4.07;;;1.25;;
19219;SDS011;9744;49.364;7.484;2023-08-01T14:58:25;2.95;;;1.52;;
19219;SDS011;9744;49.364;7.484;2023-08-01T15:00:52;2.85;;;0.90;;